Aviation Digital Data Service (ADDS)

Output produced by METARs form (0731 UTC 22 August 2017)
found at http://aviationweather.gov/adds/metars/
 
KHKY 220540Z 2206/2306 00000KT P6SM SKC 
     FM220800 VRB03KT P6SM FEW250 
     TEMPO 2208/2212 5SM BR 
     FM221600 22005KT P6SM SCT045 
     FM221900 21007KT P6SM SCT050